<?xml version="1.0" encoding="UTF-8" standalone="no" ?>
<gpx xmlns="http://www.topografix.com/GPX/1/1" xmlns:xsi="http://www.w3.org/2001/XMLSchema-instance" xsi:schemaLocation="http://www.topografix.com/GPX/1/1 http://www.topografix.com/GPX/1/1/gpx.xsd" version="1.1" creator="VisuGPX - https://www.visugpx.com">
  <metadata>
    <name>Pic du Contadé 2714 m</name>
    <desc><![CDATA[Pic du Contadé au départ de La Mongie par la Coume de Pourtheil avec le CAF de PAU]]></desc>
  </metadata>
  <wpt lat="42.90798" lon="0.16617">
    <ele>1784.54</ele>
    <name><![CDATA[0000054]]></name>
    <type><![CDATA[Point de départ]]></type>
  </wpt>
  <wpt lat="42.90787" lon="0.16606">
    <ele>1796.52</ele>
    <name><![CDATA[0000055]]></name>
    <desc><![CDATA[<p><br /><h3>Nom: Segment: 1</h3><br />Heure de départ: 05/06/2018 09:00<br/>Heure d'arrivée: 05/06/2018 13:56<br/>Distance: 8km (04:56)<br/>Temps déplacement: 01:41<br/>Vitesse moyenne: 1,61 km/h<br/>Vitesse moyenne mouv.: 4,68 km/h<br/>Vitesse Max.: 36,74 km/h<br/>Altitude minimale: 1782 m<br/>Altitude maximale: 2712 m<br/>Vitesse de montée: 256,2 m/h<br/>Vitesse de descente: -718 m/h<br/>Gain d'altitude: 935 m<br/>Perte d'altitude: -923 m<br/>Temps de montée: 03:39<br/>Temps de descente: 01:17<br/></p>]]></desc>
    <type><![CDATA[Point d'arrivée]]></type>
  </wpt>
  <trk>
    <name><![CDATA[2018-05-06 09:00]]></name>
    <desc><![CDATA[<p>Heure de départ: 05/06/2018 09:00<br/>Heure d'arrivée: 05/06/2018 13:56<br/>Distance: 8 km (04:56)<br/>Temps déplacement: 01:41<br/>Vitesse moyenne: 1,61 km/h<br/>Vitesse moyenne mouv.: 4,69 km/h<br/>Vitesse Max.: 36,74 km/h<br/>Altitude minimale: 1782 m<br/>Altitude maximale: 2712 m<br/>Vitesse de montée: 258,2 m/h<br/>Vitesse de descente: -674,8 m/h<br/>Gain d'altitude: 925 m<br/>Perte d'altitude: -915 m<br/>Temps de montée: 03:35<br/>Temps de descente: 01:21<br/></p><hr align="center" width="480" style="height: 2px; width: 517px"/>]]></desc>
    <trkseg>
      <trkpt lat="42.90798" lon="0.16617">
        <ele>1784.54</ele>
        <time>2018-05-06T07:00:36Z</time>
      </trkpt>
      <trkpt lat="42.90785" lon="0.166">
        <ele>1788.52</ele>
        <time>2018-05-06T07:04:09Z</time>
      </trkpt>
      <trkpt lat="42.90773" lon="0.16581">
        <ele>1789.52</ele>
        <time>2018-05-06T07:04:32Z</time>
      </trkpt>
      <trkpt lat="42.90764" lon="0.16559">
        <ele>1786.53</ele>
        <time>2018-05-06T07:04:47Z</time>
      </trkpt>
      <trkpt lat="42.90748" lon="0.16546">
        <ele>1782.55</ele>
        <time>2018-05-06T07:05:03Z</time>
      </trkpt>
      <trkpt lat="42.90737" lon="0.16527">
        <ele>1783.52</ele>
        <time>2018-05-06T07:05:20Z</time>
      </trkpt>
      <trkpt lat="42.9073" lon="0.16503">
        <ele>1782.58</ele>
        <time>2018-05-06T07:05:36Z</time>
      </trkpt>
      <trkpt lat="42.90712" lon="0.16499">
        <ele>1785.52</ele>
        <time>2018-05-06T07:09:44Z</time>
      </trkpt>
      <trkpt lat="42.90695" lon="0.1651">
        <ele>1787.52</ele>
        <time>2018-05-06T07:11:20Z</time>
      </trkpt>
      <trkpt lat="42.90676" lon="0.16504">
        <ele>1789.51</ele>
        <time>2018-05-06T07:11:46Z</time>
      </trkpt>
      <trkpt lat="42.90661" lon="0.16491">
        <ele>1788.52</ele>
        <time>2018-05-06T07:12:06Z</time>
      </trkpt>
      <trkpt lat="42.90647" lon="0.16474">
        <ele>1790.51</ele>
        <time>2018-05-06T07:12:33Z</time>
      </trkpt>
      <trkpt lat="42.90634" lon="0.16456">
        <ele>1795.22</ele>
        <time>2018-05-06T07:13:04Z</time>
      </trkpt>
      <trkpt lat="42.90619" lon="0.16441">
        <ele>1796.52</ele>
        <time>2018-05-06T07:13:39Z</time>
      </trkpt>
      <trkpt lat="42.90604" lon="0.16454">
        <ele>1800.22</ele>
        <time>2018-05-06T07:14:07Z</time>
      </trkpt>
      <trkpt lat="42.90588" lon="0.16469">
        <ele>1807.22</ele>
        <time>2018-05-06T07:14:37Z</time>
      </trkpt>
      <trkpt lat="42.9057" lon="0.16462">
        <ele>1812.13</ele>
        <time>2018-05-06T07:15:12Z</time>
      </trkpt>
      <trkpt lat="42.90556" lon="0.16443">
        <ele>1814.52</ele>
        <time>2018-05-06T07:15:45Z</time>
      </trkpt>
      <trkpt lat="42.90542" lon="0.16427">
        <ele>1819.29</ele>
        <time>2018-05-06T07:16:12Z</time>
      </trkpt>
      <trkpt lat="42.90527" lon="0.16412">
        <ele>1825.43</ele>
        <time>2018-05-06T07:16:44Z</time>
      </trkpt>
      <trkpt lat="42.90515" lon="0.16394">
        <ele>1833.4</ele>
        <time>2018-05-06T07:17:13Z</time>
      </trkpt>
      <trkpt lat="42.905" lon="0.16379">
        <ele>1834.43</ele>
        <time>2018-05-06T07:17:45Z</time>
      </trkpt>
      <trkpt lat="42.90484" lon="0.16369">
        <ele>1837.61</ele>
        <time>2018-05-06T07:18:09Z</time>
      </trkpt>
      <trkpt lat="42.90467" lon="0.1636">
        <ele>1837.31</ele>
        <time>2018-05-06T07:18:28Z</time>
      </trkpt>
      <trkpt lat="42.90449" lon="0.16353">
        <ele>1840.49</ele>
        <time>2018-05-06T07:18:48Z</time>
      </trkpt>
      <trkpt lat="42.90432" lon="0.16342">
        <ele>1841.55</ele>
        <time>2018-05-06T07:19:09Z</time>
      </trkpt>
      <trkpt lat="42.90416" lon="0.16331">
        <ele>1844.52</ele>
        <time>2018-05-06T07:19:31Z</time>
      </trkpt>
      <trkpt lat="42.90401" lon="0.16317">
        <ele>1846.52</ele>
        <time>2018-05-06T07:19:52Z</time>
      </trkpt>
      <trkpt lat="42.90386" lon="0.16304">
        <ele>1849.49</ele>
        <time>2018-05-06T07:20:17Z</time>
      </trkpt>
      <trkpt lat="42.90372" lon="0.16288">
        <ele>1851.52</ele>
        <time>2018-05-06T07:20:37Z</time>
      </trkpt>
      <trkpt lat="42.90357" lon="0.16272">
        <ele>1854.5</ele>
        <time>2018-05-06T07:20:58Z</time>
      </trkpt>
      <trkpt lat="42.9034" lon="0.16262">
        <ele>1856.82</ele>
        <time>2018-05-06T07:21:29Z</time>
      </trkpt>
      <trkpt lat="42.90324" lon="0.1625">
        <ele>1863.22</ele>
        <time>2018-05-06T07:21:58Z</time>
      </trkpt>
      <trkpt lat="42.90312" lon="0.16231">
        <ele>1869.81</ele>
        <time>2018-05-06T07:22:28Z</time>
      </trkpt>
      <trkpt lat="42.90294" lon="0.16229">
        <ele>1869.52</ele>
        <time>2018-05-06T07:22:57Z</time>
      </trkpt>
      <trkpt lat="42.90278" lon="0.16216">
        <ele>1877.51</ele>
        <time>2018-05-06T07:23:31Z</time>
      </trkpt>
      <trkpt lat="42.90265" lon="0.16199">
        <ele>1885.52</ele>
        <time>2018-05-06T07:24:04Z</time>
      </trkpt>
      <trkpt lat="42.90248" lon="0.16189">
        <ele>1891.41</ele>
        <time>2018-05-06T07:24:34Z</time>
      </trkpt>
      <trkpt lat="42.90234" lon="0.16171">
        <ele>1898.22</ele>
        <time>2018-05-06T07:25:11Z</time>
      </trkpt>
      <trkpt lat="42.90226" lon="0.16149">
        <ele>1909.3</ele>
        <time>2018-05-06T07:26:02Z</time>
      </trkpt>
      <trkpt lat="42.90211" lon="0.16135">
        <ele>1911.45</ele>
        <time>2018-05-06T07:26:41Z</time>
      </trkpt>
      <trkpt lat="42.90195" lon="0.16122">
        <ele>1921.8</ele>
        <time>2018-05-06T07:27:24Z</time>
      </trkpt>
      <trkpt lat="42.90182" lon="0.16104">
        <ele>1935.23</ele>
        <time>2018-05-06T07:28:18Z</time>
      </trkpt>
      <trkpt lat="42.90165" lon="0.16098">
        <ele>1946.22</ele>
        <time>2018-05-06T07:29:14Z</time>
      </trkpt>
      <trkpt lat="42.90155" lon="0.16077">
        <ele>1951.51</ele>
        <time>2018-05-06T07:29:52Z</time>
      </trkpt>
      <trkpt lat="42.9015" lon="0.16052">
        <ele>1955.49</ele>
        <time>2018-05-06T07:30:23Z</time>
      </trkpt>
      <trkpt lat="42.90137" lon="0.16034">
        <ele>1959.55</ele>
        <time>2018-05-06T07:31:02Z</time>
      </trkpt>
      <trkpt lat="42.90132" lon="0.1601">
        <ele>1963.2</ele>
        <time>2018-05-06T07:31:28Z</time>
      </trkpt>
      <trkpt lat="42.90121" lon="0.15991">
        <ele>1965.54</ele>
        <time>2018-05-06T07:31:54Z</time>
      </trkpt>
      <trkpt lat="42.90107" lon="0.15974">
        <ele>1968.31</ele>
        <time>2018-05-06T07:32:22Z</time>
      </trkpt>
      <trkpt lat="42.90098" lon="0.15953">
        <ele>1970.82</ele>
        <time>2018-05-06T07:32:52Z</time>
      </trkpt>
      <trkpt lat="42.90103" lon="0.1593">
        <ele>1974.52</ele>
        <time>2018-05-06T07:33:21Z</time>
      </trkpt>
      <trkpt lat="42.90091" lon="0.15911">
        <ele>1980.4</ele>
        <time>2018-05-06T07:34:07Z</time>
      </trkpt>
      <trkpt lat="42.90083" lon="0.15889">
        <ele>1989.51</ele>
        <time>2018-05-06T07:34:55Z</time>
      </trkpt>
      <trkpt lat="42.90086" lon="0.15864">
        <ele>1994.43</ele>
        <time>2018-05-06T07:35:35Z</time>
      </trkpt>
      <trkpt lat="42.90069" lon="0.15853">
        <ele>1998.52</ele>
        <time>2018-05-06T07:36:07Z</time>
      </trkpt>
      <trkpt lat="42.90058" lon="0.15835">
        <ele>2004.3</ele>
        <time>2018-05-06T07:36:52Z</time>
      </trkpt>
      <trkpt lat="42.90039" lon="0.15834">
        <ele>2007.5</ele>
        <time>2018-05-06T07:37:22Z</time>
      </trkpt>
      <trkpt lat="42.90021" lon="0.15837">
        <ele>2013.21</ele>
        <time>2018-05-06T07:37:47Z</time>
      </trkpt>
      <trkpt lat="42.90003" lon="0.15842">
        <ele>2016.58</ele>
        <time>2018-05-06T07:38:16Z</time>
      </trkpt>
      <trkpt lat="42.89986" lon="0.15831">
        <ele>2018.23</ele>
        <time>2018-05-06T07:40:15Z</time>
      </trkpt>
      <trkpt lat="42.89978" lon="0.15855">
        <ele>2028.52</ele>
        <time>2018-05-06T07:46:21Z</time>
      </trkpt>
      <trkpt lat="42.89962" lon="0.15867">
        <ele>2028.53</ele>
        <time>2018-05-06T07:46:40Z</time>
      </trkpt>
      <trkpt lat="42.89945" lon="0.15877">
        <ele>2029.73</ele>
        <time>2018-05-06T07:47:01Z</time>
      </trkpt>
      <trkpt lat="42.89927" lon="0.1588">
        <ele>2029.64</ele>
        <time>2018-05-06T07:47:28Z</time>
      </trkpt>
      <trkpt lat="42.89909" lon="0.15876">
        <ele>2023.31</ele>
        <time>2018-05-06T07:47:46Z</time>
      </trkpt>
      <trkpt lat="42.89891" lon="0.15883">
        <ele>2030.4</ele>
        <time>2018-05-06T07:48:31Z</time>
      </trkpt>
      <trkpt lat="42.89873" lon="0.15885">
        <ele>2031.3</ele>
        <time>2018-05-06T07:49:12Z</time>
      </trkpt>
      <trkpt lat="42.89867" lon="0.15909">
        <ele>2043.21</ele>
        <time>2018-05-06T07:49:35Z</time>
      </trkpt>
      <trkpt lat="42.89852" lon="0.15894">
        <ele>2037.94</ele>
        <time>2018-05-06T07:50:02Z</time>
      </trkpt>
      <trkpt lat="42.89839" lon="0.15913">
        <ele>2038.21</ele>
        <time>2018-05-06T07:50:35Z</time>
      </trkpt>
      <trkpt lat="42.89829" lon="0.15891">
        <ele>2042.81</ele>
        <time>2018-05-06T07:50:58Z</time>
      </trkpt>
      <trkpt lat="42.89813" lon="0.15879">
        <ele>2053.52</ele>
        <time>2018-05-06T07:51:37Z</time>
      </trkpt>
      <trkpt lat="42.898" lon="0.15896">
        <ele>2046.88</ele>
        <time>2018-05-06T07:52:15Z</time>
      </trkpt>
      <trkpt lat="42.89782" lon="0.15901">
        <ele>2059.12</ele>
        <time>2018-05-06T07:53:58Z</time>
      </trkpt>
      <trkpt lat="42.89774" lon="0.15924">
        <ele>2063.38</ele>
        <time>2018-05-06T07:54:16Z</time>
      </trkpt>
      <trkpt lat="42.89759" lon="0.15936">
        <ele>2082.38</ele>
        <time>2018-05-06T07:55:02Z</time>
      </trkpt>
      <trkpt lat="42.89741" lon="0.15944">
        <ele>2081.7</ele>
        <time>2018-05-06T07:56:07Z</time>
      </trkpt>
      <trkpt lat="42.89726" lon="0.15959">
        <ele>2092.52</ele>
        <time>2018-05-06T07:56:39Z</time>
      </trkpt>
      <trkpt lat="42.89712" lon="0.15974">
        <ele>2097.51</ele>
        <time>2018-05-06T07:57:12Z</time>
      </trkpt>
      <trkpt lat="42.89698" lon="0.15992">
        <ele>2105.52</ele>
        <time>2018-05-06T07:57:40Z</time>
      </trkpt>
      <trkpt lat="42.89693" lon="0.16015">
        <ele>2114.19</ele>
        <time>2018-05-06T07:58:06Z</time>
      </trkpt>
      <trkpt lat="42.89675" lon="0.16021">
        <ele>2117.46</ele>
        <time>2018-05-06T07:58:31Z</time>
      </trkpt>
      <trkpt lat="42.89658" lon="0.1603">
        <ele>2119.42</ele>
        <time>2018-05-06T07:58:54Z</time>
      </trkpt>
      <trkpt lat="42.89639" lon="0.16036">
        <ele>2122.55</ele>
        <time>2018-05-06T07:59:16Z</time>
      </trkpt>
      <trkpt lat="42.89621" lon="0.16044">
        <ele>2127.41</ele>
        <time>2018-05-06T07:59:37Z</time>
      </trkpt>
      <trkpt lat="42.89606" lon="0.16057">
        <ele>2127.22</ele>
        <time>2018-05-06T08:00:03Z</time>
      </trkpt>
      <trkpt lat="42.89592" lon="0.16073">
        <ele>2122.83</ele>
        <time>2018-05-06T08:00:22Z</time>
      </trkpt>
      <trkpt lat="42.89578" lon="0.1609">
        <ele>2124.51</ele>
        <time>2018-05-06T08:00:47Z</time>
      </trkpt>
      <trkpt lat="42.89568" lon="0.16111">
        <ele>2128.52</ele>
        <time>2018-05-06T08:01:08Z</time>
      </trkpt>
      <trkpt lat="42.89555" lon="0.16128">
        <ele>2139.52</ele>
        <time>2018-05-06T08:01:36Z</time>
      </trkpt>
      <trkpt lat="42.89541" lon="0.16144">
        <ele>2139.53</ele>
        <time>2018-05-06T08:02:00Z</time>
      </trkpt>
      <trkpt lat="42.89541" lon="0.16169">
        <ele>2142.5</ele>
        <time>2018-05-06T08:02:20Z</time>
      </trkpt>
      <trkpt lat="42.89524" lon="0.16179">
        <ele>2138.82</ele>
        <time>2018-05-06T08:02:40Z</time>
      </trkpt>
      <trkpt lat="42.89505" lon="0.1618">
        <ele>2140.51</ele>
        <time>2018-05-06T08:03:10Z</time>
      </trkpt>
      <trkpt lat="42.89487" lon="0.16175">
        <ele>2140.46</ele>
        <time>2018-05-06T08:03:39Z</time>
      </trkpt>
      <trkpt lat="42.8947" lon="0.16183">
        <ele>2151.41</ele>
        <time>2018-05-06T08:04:59Z</time>
      </trkpt>
      <trkpt lat="42.89454" lon="0.16196">
        <ele>2154.45</ele>
        <time>2018-05-06T08:05:34Z</time>
      </trkpt>
      <trkpt lat="42.89439" lon="0.1621">
        <ele>2162.43</ele>
        <time>2018-05-06T08:06:32Z</time>
      </trkpt>
      <trkpt lat="42.89423" lon="0.16221">
        <ele>2161.82</ele>
        <time>2018-05-06T08:06:59Z</time>
      </trkpt>
      <trkpt lat="42.89406" lon="0.16229">
        <ele>2169.2</ele>
        <time>2018-05-06T08:07:31Z</time>
      </trkpt>
      <trkpt lat="42.89388" lon="0.16236">
        <ele>2174.53</ele>
        <time>2018-05-06T08:07:58Z</time>
      </trkpt>
      <trkpt lat="42.8937" lon="0.16243">
        <ele>2175.22</ele>
        <time>2018-05-06T08:08:28Z</time>
      </trkpt>
      <trkpt lat="42.89353" lon="0.16252">
        <ele>2178.54</ele>
        <time>2018-05-06T08:09:01Z</time>
      </trkpt>
      <trkpt lat="42.89346" lon="0.16274">
        <ele>2182.52</ele>
        <time>2018-05-06T08:16:59Z</time>
      </trkpt>
      <trkpt lat="42.89336" lon="0.16296">
        <ele>2189.51</ele>
        <time>2018-05-06T08:17:25Z</time>
      </trkpt>
      <trkpt lat="42.8932" lon="0.16306">
        <ele>2191.31</ele>
        <time>2018-05-06T08:18:23Z</time>
      </trkpt>
      <trkpt lat="42.89305" lon="0.16319">
        <ele>2196.22</ele>
        <time>2018-05-06T08:18:45Z</time>
      </trkpt>
      <trkpt lat="42.89292" lon="0.16337">
        <ele>2204.21</ele>
        <time>2018-05-06T08:19:09Z</time>
      </trkpt>
      <trkpt lat="42.89274" lon="0.16343">
        <ele>2212.54</ele>
        <time>2018-05-06T08:19:38Z</time>
      </trkpt>
      <trkpt lat="42.89265" lon="0.16365">
        <ele>2218.19</ele>
        <time>2018-05-06T08:20:14Z</time>
      </trkpt>
      <trkpt lat="42.89251" lon="0.16381">
        <ele>2220.71</ele>
        <time>2018-05-06T08:20:48Z</time>
      </trkpt>
      <trkpt lat="42.89238" lon="0.16399">
        <ele>2224.55</ele>
        <time>2018-05-06T08:21:13Z</time>
      </trkpt>
      <trkpt lat="42.89226" lon="0.16418">
        <ele>2226.6</ele>
        <time>2018-05-06T08:21:45Z</time>
      </trkpt>
      <trkpt lat="42.89209" lon="0.16428">
        <ele>2227.73</ele>
        <time>2018-05-06T08:22:10Z</time>
      </trkpt>
      <trkpt lat="42.892" lon="0.1645">
        <ele>2233.42</ele>
        <time>2018-05-06T08:22:48Z</time>
      </trkpt>
      <trkpt lat="42.89199" lon="0.16475">
        <ele>2233.79</ele>
        <time>2018-05-06T08:23:23Z</time>
      </trkpt>
      <trkpt lat="42.89188" lon="0.16495">
        <ele>2238.6</ele>
        <time>2018-05-06T08:23:56Z</time>
      </trkpt>
      <trkpt lat="42.89173" lon="0.1651">
        <ele>2244.43</ele>
        <time>2018-05-06T08:24:22Z</time>
      </trkpt>
      <trkpt lat="42.89163" lon="0.1653">
        <ele>2246.76</ele>
        <time>2018-05-06T08:24:48Z</time>
      </trkpt>
      <trkpt lat="42.89153" lon="0.16551">
        <ele>2249.49</ele>
        <time>2018-05-06T08:25:11Z</time>
      </trkpt>
      <trkpt lat="42.89144" lon="0.16573">
        <ele>2250.42</ele>
        <time>2018-05-06T08:25:35Z</time>
      </trkpt>
      <trkpt lat="42.89131" lon="0.16591">
        <ele>2255.22</ele>
        <time>2018-05-06T08:26:02Z</time>
      </trkpt>
      <trkpt lat="42.89121" lon="0.16611">
        <ele>2257.91</ele>
        <time>2018-05-06T08:26:36Z</time>
      </trkpt>
      <trkpt lat="42.8911" lon="0.16632">
        <ele>2264.43</ele>
        <time>2018-05-06T08:27:01Z</time>
      </trkpt>
      <trkpt lat="42.89101" lon="0.16654">
        <ele>2271.52</ele>
        <time>2018-05-06T08:27:22Z</time>
      </trkpt>
      <trkpt lat="42.89086" lon="0.16669">
        <ele>2276.52</ele>
        <time>2018-05-06T08:27:50Z</time>
      </trkpt>
      <trkpt lat="42.89069" lon="0.16677">
        <ele>2281.22</ele>
        <time>2018-05-06T08:28:17Z</time>
      </trkpt>
      <trkpt lat="42.89051" lon="0.16674">
        <ele>2285.51</ele>
        <time>2018-05-06T08:28:40Z</time>
      </trkpt>
      <trkpt lat="42.89034" lon="0.16663">
        <ele>2289.22</ele>
        <time>2018-05-06T08:29:01Z</time>
      </trkpt>
      <trkpt lat="42.89016" lon="0.16658">
        <ele>2294.59</ele>
        <time>2018-05-06T08:29:24Z</time>
      </trkpt>
      <trkpt lat="42.88998" lon="0.16656">
        <ele>2297.43</ele>
        <time>2018-05-06T08:29:57Z</time>
      </trkpt>
      <trkpt lat="42.88979" lon="0.16654">
        <ele>2303.5</ele>
        <time>2018-05-06T08:30:20Z</time>
      </trkpt>
      <trkpt lat="42.8896" lon="0.16657">
        <ele>2306.5</ele>
        <time>2018-05-06T08:36:46Z</time>
      </trkpt>
      <trkpt lat="42.88942" lon="0.16657">
        <ele>2309.43</ele>
        <time>2018-05-06T08:37:13Z</time>
      </trkpt>
      <trkpt lat="42.88924" lon="0.16663">
        <ele>2311.52</ele>
        <time>2018-05-06T08:37:36Z</time>
      </trkpt>
      <trkpt lat="42.88906" lon="0.16666">
        <ele>2313.22</ele>
        <time>2018-05-06T08:38:01Z</time>
      </trkpt>
      <trkpt lat="42.88889" lon="0.16674">
        <ele>2315.52</ele>
        <time>2018-05-06T08:38:27Z</time>
      </trkpt>
      <trkpt lat="42.88872" lon="0.16687">
        <ele>2319.52</ele>
        <time>2018-05-06T08:38:57Z</time>
      </trkpt>
      <trkpt lat="42.88858" lon="0.16703">
        <ele>2321.73</ele>
        <time>2018-05-06T08:39:26Z</time>
      </trkpt>
      <trkpt lat="42.88842" lon="0.16718">
        <ele>2326.22</ele>
        <time>2018-05-06T08:39:58Z</time>
      </trkpt>
      <trkpt lat="42.88826" lon="0.16729">
        <ele>2331.49</ele>
        <time>2018-05-06T08:40:22Z</time>
      </trkpt>
      <trkpt lat="42.88808" lon="0.16734">
        <ele>2335.22</ele>
        <time>2018-05-06T08:40:53Z</time>
      </trkpt>
      <trkpt lat="42.8879" lon="0.16739">
        <ele>2338.73</ele>
        <time>2018-05-06T08:41:48Z</time>
      </trkpt>
      <trkpt lat="42.88782" lon="0.1676">
        <ele>2342.2</ele>
        <time>2018-05-06T08:43:31Z</time>
      </trkpt>
      <trkpt lat="42.88772" lon="0.16781">
        <ele>2342.22</ele>
        <time>2018-05-06T08:44:05Z</time>
      </trkpt>
      <trkpt lat="42.88759" lon="0.16798">
        <ele>2352.12</ele>
        <time>2018-05-06T08:44:28Z</time>
      </trkpt>
      <trkpt lat="42.88749" lon="0.16819">
        <ele>2356.45</ele>
        <time>2018-05-06T08:44:54Z</time>
      </trkpt>
      <trkpt lat="42.88737" lon="0.16838">
        <ele>2359.52</ele>
        <time>2018-05-06T08:45:20Z</time>
      </trkpt>
      <trkpt lat="42.88725" lon="0.16856">
        <ele>2365.24</ele>
        <time>2018-05-06T08:46:06Z</time>
      </trkpt>
      <trkpt lat="42.88713" lon="0.16875">
        <ele>2370.52</ele>
        <time>2018-05-06T08:47:07Z</time>
      </trkpt>
      <trkpt lat="42.88708" lon="0.16899">
        <ele>2374.47</ele>
        <time>2018-05-06T08:47:51Z</time>
      </trkpt>
      <trkpt lat="42.88715" lon="0.16923">
        <ele>2379.82</ele>
        <time>2018-05-06T08:48:40Z</time>
      </trkpt>
      <trkpt lat="42.88722" lon="0.16947">
        <ele>2386.34</ele>
        <time>2018-05-06T08:49:18Z</time>
      </trkpt>
      <trkpt lat="42.88729" lon="0.1697">
        <ele>2390.82</ele>
        <time>2018-05-06T08:49:54Z</time>
      </trkpt>
      <trkpt lat="42.88739" lon="0.1699">
        <ele>2394.51</ele>
        <time>2018-05-06T08:50:32Z</time>
      </trkpt>
      <trkpt lat="42.88724" lon="0.17004">
        <ele>2403.04</ele>
        <time>2018-05-06T08:51:09Z</time>
      </trkpt>
      <trkpt lat="42.88731" lon="0.17027">
        <ele>2408.13</ele>
        <time>2018-05-06T08:51:43Z</time>
      </trkpt>
      <trkpt lat="42.88738" lon="0.1705">
        <ele>2413.49</ele>
        <time>2018-05-06T08:52:19Z</time>
      </trkpt>
      <trkpt lat="42.88756" lon="0.17055">
        <ele>2420.49</ele>
        <time>2018-05-06T08:53:28Z</time>
      </trkpt>
      <trkpt lat="42.88769" lon="0.17072">
        <ele>2420.53</ele>
        <time>2018-05-06T08:53:55Z</time>
      </trkpt>
      <trkpt lat="42.88778" lon="0.17095">
        <ele>2424.85</ele>
        <time>2018-05-06T08:54:22Z</time>
      </trkpt>
      <trkpt lat="42.88777" lon="0.1712">
        <ele>2429.21</ele>
        <time>2018-05-06T08:54:54Z</time>
      </trkpt>
      <trkpt lat="42.88764" lon="0.17137">
        <ele>2432.52</ele>
        <time>2018-05-06T08:57:07Z</time>
      </trkpt>
      <trkpt lat="42.88757" lon="0.17161">
        <ele>2444.1</ele>
        <time>2018-05-06T08:57:50Z</time>
      </trkpt>
      <trkpt lat="42.8874" lon="0.17172">
        <ele>2453.22</ele>
        <time>2018-05-06T08:58:27Z</time>
      </trkpt>
      <trkpt lat="42.8874" lon="0.17197">
        <ele>2450.57</ele>
        <time>2018-05-06T08:58:55Z</time>
      </trkpt>
      <trkpt lat="42.88722" lon="0.17206">
        <ele>2457.41</ele>
        <time>2018-05-06T08:59:28Z</time>
      </trkpt>
      <trkpt lat="42.88709" lon="0.17223">
        <ele>2466.52</ele>
        <time>2018-05-06T09:07:50Z</time>
      </trkpt>
      <trkpt lat="42.88692" lon="0.17231">
        <ele>2473.34</ele>
        <time>2018-05-06T09:09:54Z</time>
      </trkpt>
      <trkpt lat="42.8869" lon="0.17256">
        <ele>2483.12</ele>
        <time>2018-05-06T09:11:00Z</time>
      </trkpt>
      <trkpt lat="42.88676" lon="0.17271">
        <ele>2501.43</ele>
        <time>2018-05-06T09:13:25Z</time>
      </trkpt>
      <trkpt lat="42.88677" lon="0.17296">
        <ele>2504.51</ele>
        <time>2018-05-06T09:15:06Z</time>
      </trkpt>
      <trkpt lat="42.88681" lon="0.1732">
        <ele>2518.78</ele>
        <time>2018-05-06T09:16:27Z</time>
      </trkpt>
      <trkpt lat="42.88662" lon="0.17325">
        <ele>2526.52</ele>
        <time>2018-05-06T09:17:08Z</time>
      </trkpt>
      <trkpt lat="42.88644" lon="0.17324">
        <ele>2533.22</ele>
        <time>2018-05-06T09:17:54Z</time>
      </trkpt>
      <trkpt lat="42.88645" lon="0.17348">
        <ele>2528.82</ele>
        <time>2018-05-06T09:18:50Z</time>
      </trkpt>
      <trkpt lat="42.88638" lon="0.17372">
        <ele>2541.61</ele>
        <time>2018-05-06T09:20:29Z</time>
      </trkpt>
      <trkpt lat="42.88626" lon="0.1739">
        <ele>2548.21</ele>
        <time>2018-05-06T09:22:05Z</time>
      </trkpt>
      <trkpt lat="42.88608" lon="0.17383">
        <ele>2565.16</ele>
        <time>2018-05-06T09:22:37Z</time>
      </trkpt>
      <trkpt lat="42.88595" lon="0.174">
        <ele>2565.22</ele>
        <time>2018-05-06T09:42:25Z</time>
      </trkpt>
      <trkpt lat="42.88578" lon="0.17411">
        <ele>2576.43</ele>
        <time>2018-05-06T09:43:43Z</time>
      </trkpt>
      <trkpt lat="42.88584" lon="0.17434">
        <ele>2580.85</ele>
        <time>2018-05-06T09:44:58Z</time>
      </trkpt>
      <trkpt lat="42.88568" lon="0.17445">
        <ele>2581.43</ele>
        <time>2018-05-06T09:45:52Z</time>
      </trkpt>
      <trkpt lat="42.88564" lon="0.1747">
        <ele>2602.92</ele>
        <time>2018-05-06T09:48:19Z</time>
      </trkpt>
      <trkpt lat="42.88548" lon="0.17482">
        <ele>2615.52</ele>
        <time>2018-05-06T09:51:00Z</time>
      </trkpt>
      <trkpt lat="42.8856" lon="0.17503">
        <ele>2621.92</ele>
        <time>2018-05-06T09:52:00Z</time>
      </trkpt>
      <trkpt lat="42.88543" lon="0.1751">
        <ele>2623.6</ele>
        <time>2018-05-06T09:52:42Z</time>
      </trkpt>
      <trkpt lat="42.88546" lon="0.17534">
        <ele>2652.22</ele>
        <time>2018-05-06T09:56:41Z</time>
      </trkpt>
      <trkpt lat="42.88537" lon="0.17556">
        <ele>2670.22</ele>
        <time>2018-05-06T09:59:22Z</time>
      </trkpt>
      <trkpt lat="42.88523" lon="0.17572">
        <ele>2683.43</ele>
        <time>2018-05-06T10:04:59Z</time>
      </trkpt>
      <trkpt lat="42.88511" lon="0.17553">
        <ele>2695.52</ele>
        <time>2018-05-06T10:07:05Z</time>
      </trkpt>
      <trkpt lat="42.88501" lon="0.17532">
        <ele>2711.43</ele>
        <time>2018-05-06T10:09:08Z</time>
      </trkpt>
      <trkpt lat="42.88488" lon="0.1755">
        <ele>2712.61</ele>
        <time>2018-05-06T10:45:35Z</time>
      </trkpt>
      <trkpt lat="42.88482" lon="0.17574">
        <ele>2706.56</ele>
        <time>2018-05-06T10:46:22Z</time>
      </trkpt>
      <trkpt lat="42.88502" lon="0.17578">
        <ele>2697.55</ele>
        <time>2018-05-06T10:47:09Z</time>
      </trkpt>
      <trkpt lat="42.88521" lon="0.17573">
        <ele>2693.04</ele>
        <time>2018-05-06T10:47:13Z</time>
      </trkpt>
      <trkpt lat="42.88535" lon="0.17558">
        <ele>2676.64</ele>
        <time>2018-05-06T10:49:16Z</time>
      </trkpt>
      <trkpt lat="42.88545" lon="0.17536">
        <ele>2662.92</ele>
        <time>2018-05-06T11:00:58Z</time>
      </trkpt>
      <trkpt lat="42.88552" lon="0.17513">
        <ele>2654.86</ele>
        <time>2018-05-06T11:03:50Z</time>
      </trkpt>
      <trkpt lat="42.88563" lon="0.17493">
        <ele>2649.24</ele>
        <time>2018-05-06T11:03:57Z</time>
      </trkpt>
      <trkpt lat="42.88555" lon="0.17464">
        <ele>2642.35</ele>
        <time>2018-05-06T11:04:01Z</time>
      </trkpt>
      <trkpt lat="42.88556" lon="0.17432">
        <ele>2631.01</ele>
        <time>2018-05-06T11:04:07Z</time>
      </trkpt>
      <trkpt lat="42.88567" lon="0.1741">
        <ele>2623.03</ele>
        <time>2018-05-06T11:04:12Z</time>
      </trkpt>
      <trkpt lat="42.88579" lon="0.17391">
        <ele>2616.37</ele>
        <time>2018-05-06T11:04:16Z</time>
      </trkpt>
      <trkpt lat="42.88589" lon="0.17363">
        <ele>2605.8</ele>
        <time>2018-05-06T11:04:20Z</time>
      </trkpt>
      <trkpt lat="42.88606" lon="0.17348">
        <ele>2599.6</ele>
        <time>2018-05-06T11:04:23Z</time>
      </trkpt>
      <trkpt lat="42.88597" lon="0.17369">
        <ele>2572.82</ele>
        <time>2018-05-06T11:06:48Z</time>
      </trkpt>
      <trkpt lat="42.88615" lon="0.17375">
        <ele>2568.85</ele>
        <time>2018-05-06T11:30:17Z</time>
      </trkpt>
      <trkpt lat="42.88634" lon="0.1739">
        <ele>2567.61</ele>
        <time>2018-05-06T11:30:22Z</time>
      </trkpt>
      <trkpt lat="42.88652" lon="0.17393">
        <ele>2567.81</ele>
        <time>2018-05-06T11:30:27Z</time>
      </trkpt>
      <trkpt lat="42.88671" lon="0.17393">
        <ele>2567.52</ele>
        <time>2018-05-06T11:30:32Z</time>
      </trkpt>
      <trkpt lat="42.88686" lon="0.17381">
        <ele>2563.92</ele>
        <time>2018-05-06T11:30:54Z</time>
      </trkpt>
      <trkpt lat="42.887" lon="0.17358">
        <ele>2555.46</ele>
        <time>2018-05-06T11:31:00Z</time>
      </trkpt>
      <trkpt lat="42.88717" lon="0.17342">
        <ele>2546.91</ele>
        <time>2018-05-06T11:31:05Z</time>
      </trkpt>
      <trkpt lat="42.88717" lon="0.17315">
        <ele>2535.37</ele>
        <time>2018-05-06T11:31:10Z</time>
      </trkpt>
      <trkpt lat="42.88735" lon="0.17303">
        <ele>2524.5</ele>
        <time>2018-05-06T11:31:14Z</time>
      </trkpt>
      <trkpt lat="42.88739" lon="0.17278">
        <ele>2515.46</ele>
        <time>2018-05-06T11:31:19Z</time>
      </trkpt>
      <trkpt lat="42.88748" lon="0.17253">
        <ele>2502.44</ele>
        <time>2018-05-06T11:31:24Z</time>
      </trkpt>
      <trkpt lat="42.88748" lon="0.17226">
        <ele>2494.38</ele>
        <time>2018-05-06T11:31:28Z</time>
      </trkpt>
      <trkpt lat="42.88746" lon="0.17202">
        <ele>2485.97</ele>
        <time>2018-05-06T11:31:32Z</time>
      </trkpt>
      <trkpt lat="42.88766" lon="0.172">
        <ele>2473.15</ele>
        <time>2018-05-06T11:32:36Z</time>
      </trkpt>
      <trkpt lat="42.88777" lon="0.17179">
        <ele>2468.24</ele>
        <time>2018-05-06T11:32:41Z</time>
      </trkpt>
      <trkpt lat="42.88772" lon="0.17153">
        <ele>2461.92</ele>
        <time>2018-05-06T11:32:47Z</time>
      </trkpt>
      <trkpt lat="42.8879" lon="0.17154">
        <ele>2450.55</ele>
        <time>2018-05-06T11:34:26Z</time>
      </trkpt>
      <trkpt lat="42.88792" lon="0.17125">
        <ele>2448.91</ele>
        <time>2018-05-06T11:34:30Z</time>
      </trkpt>
      <trkpt lat="42.88789" lon="0.17097">
        <ele>2445.95</ele>
        <time>2018-05-06T11:34:33Z</time>
      </trkpt>
      <trkpt lat="42.88785" lon="0.17071">
        <ele>2442.95</ele>
        <time>2018-05-06T11:34:36Z</time>
      </trkpt>
      <trkpt lat="42.88779" lon="0.17047">
        <ele>2438.07</ele>
        <time>2018-05-06T11:34:39Z</time>
      </trkpt>
      <trkpt lat="42.88761" lon="0.1704">
        <ele>2428.52</ele>
        <time>2018-05-06T11:39:24Z</time>
      </trkpt>
      <trkpt lat="42.88745" lon="0.17055">
        <ele>2426.25</ele>
        <time>2018-05-06T11:39:33Z</time>
      </trkpt>
      <trkpt lat="42.88729" lon="0.17037">
        <ele>2420.96</ele>
        <time>2018-05-06T11:39:38Z</time>
      </trkpt>
      <trkpt lat="42.88717" lon="0.17015">
        <ele>2416.62</ele>
        <time>2018-05-06T11:39:43Z</time>
      </trkpt>
      <trkpt lat="42.88705" lon="0.16992">
        <ele>2413.85</ele>
        <time>2018-05-06T11:39:51Z</time>
      </trkpt>
      <trkpt lat="42.88691" lon="0.16974">
        <ele>2413.52</ele>
        <time>2018-05-06T11:39:58Z</time>
      </trkpt>
      <trkpt lat="42.88695" lon="0.16947">
        <ele>2408.68</ele>
        <time>2018-05-06T11:40:06Z</time>
      </trkpt>
      <trkpt lat="42.88683" lon="0.16926">
        <ele>2404.95</ele>
        <time>2018-05-06T11:40:10Z</time>
      </trkpt>
      <trkpt lat="42.88692" lon="0.16904">
        <ele>2399.16</ele>
        <time>2018-05-06T11:40:13Z</time>
      </trkpt>
      <trkpt lat="42.88699" lon="0.16876">
        <ele>2388.03</ele>
        <time>2018-05-06T11:40:52Z</time>
      </trkpt>
      <trkpt lat="42.88716" lon="0.16858">
        <ele>2383.28</ele>
        <time>2018-05-06T11:40:55Z</time>
      </trkpt>
      <trkpt lat="42.88733" lon="0.16838">
        <ele>2376.47</ele>
        <time>2018-05-06T11:40:58Z</time>
      </trkpt>
      <trkpt lat="42.88747" lon="0.16814">
        <ele>2370.28</ele>
        <time>2018-05-06T11:41:02Z</time>
      </trkpt>
      <trkpt lat="42.88762" lon="0.168">
        <ele>2366.05</ele>
        <time>2018-05-06T11:41:05Z</time>
      </trkpt>
      <trkpt lat="42.8878" lon="0.16789">
        <ele>2364.83</ele>
        <time>2018-05-06T11:41:09Z</time>
      </trkpt>
      <trkpt lat="42.888" lon="0.16784">
        <ele>2361.53</ele>
        <time>2018-05-06T11:41:15Z</time>
      </trkpt>
      <trkpt lat="42.88819" lon="0.16796">
        <ele>2358.91</ele>
        <time>2018-05-06T11:41:26Z</time>
      </trkpt>
      <trkpt lat="42.88839" lon="0.16802">
        <ele>2355.92</ele>
        <time>2018-05-06T11:41:31Z</time>
      </trkpt>
      <trkpt lat="42.88856" lon="0.16787">
        <ele>2350.65</ele>
        <time>2018-05-06T11:41:36Z</time>
      </trkpt>
      <trkpt lat="42.88876" lon="0.16776">
        <ele>2347.83</ele>
        <time>2018-05-06T11:41:43Z</time>
      </trkpt>
      <trkpt lat="42.88896" lon="0.16766">
        <ele>2342.27</ele>
        <time>2018-05-06T11:41:48Z</time>
      </trkpt>
      <trkpt lat="42.88916" lon="0.1676">
        <ele>2338.65</ele>
        <time>2018-05-06T11:41:53Z</time>
      </trkpt>
      <trkpt lat="42.88934" lon="0.16752">
        <ele>2336.85</ele>
        <time>2018-05-06T11:41:58Z</time>
      </trkpt>
      <trkpt lat="42.88954" lon="0.16748">
        <ele>2332.92</ele>
        <time>2018-05-06T11:42:04Z</time>
      </trkpt>
      <trkpt lat="42.88972" lon="0.16746">
        <ele>2331.53</ele>
        <time>2018-05-06T11:42:10Z</time>
      </trkpt>
      <trkpt lat="42.88994" lon="0.16745">
        <ele>2330.52</ele>
        <time>2018-05-06T11:42:16Z</time>
      </trkpt>
      <trkpt lat="42.89015" lon="0.16744">
        <ele>2329.54</ele>
        <time>2018-05-06T11:42:22Z</time>
      </trkpt>
      <trkpt lat="42.89031" lon="0.16732">
        <ele>2324.46</ele>
        <time>2018-05-06T11:42:33Z</time>
      </trkpt>
      <trkpt lat="42.89042" lon="0.16709">
        <ele>2316.31</ele>
        <time>2018-05-06T11:42:38Z</time>
      </trkpt>
      <trkpt lat="42.89055" lon="0.1669">
        <ele>2304.77</ele>
        <time>2018-05-06T11:42:43Z</time>
      </trkpt>
      <trkpt lat="42.89065" lon="0.16662">
        <ele>2291.12</ele>
        <time>2018-05-06T11:42:47Z</time>
      </trkpt>
      <trkpt lat="42.89081" lon="0.16642">
        <ele>2282.79</ele>
        <time>2018-05-06T11:42:50Z</time>
      </trkpt>
      <trkpt lat="42.89099" lon="0.16618">
        <ele>2272.83</ele>
        <time>2018-05-06T11:42:53Z</time>
      </trkpt>
      <trkpt lat="42.89115" lon="0.16593">
        <ele>2263.81</ele>
        <time>2018-05-06T11:42:56Z</time>
      </trkpt>
      <trkpt lat="42.89129" lon="0.16569">
        <ele>2256.48</ele>
        <time>2018-05-06T11:42:59Z</time>
      </trkpt>
      <trkpt lat="42.89141" lon="0.16547">
        <ele>2253.63</ele>
        <time>2018-05-06T11:43:03Z</time>
      </trkpt>
      <trkpt lat="42.89152" lon="0.16525">
        <ele>2251.55</ele>
        <time>2018-05-06T11:43:09Z</time>
      </trkpt>
      <trkpt lat="42.89164" lon="0.16506">
        <ele>2249.83</ele>
        <time>2018-05-06T11:43:15Z</time>
      </trkpt>
      <trkpt lat="42.8918" lon="0.16491">
        <ele>2246.92</ele>
        <time>2018-05-06T11:43:20Z</time>
      </trkpt>
      <trkpt lat="42.8919" lon="0.16469">
        <ele>2242.87</ele>
        <time>2018-05-06T11:43:24Z</time>
      </trkpt>
      <trkpt lat="42.89193" lon="0.16441">
        <ele>2238.25</ele>
        <time>2018-05-06T11:43:28Z</time>
      </trkpt>
      <trkpt lat="42.89206" lon="0.16421">
        <ele>2233.25</ele>
        <time>2018-05-06T11:43:32Z</time>
      </trkpt>
      <trkpt lat="42.89223" lon="0.16411">
        <ele>2229.96</ele>
        <time>2018-05-06T11:43:35Z</time>
      </trkpt>
      <trkpt lat="42.89242" lon="0.16397">
        <ele>2224.05</ele>
        <time>2018-05-06T11:43:39Z</time>
      </trkpt>
      <trkpt lat="42.89257" lon="0.16382">
        <ele>2220.86</ele>
        <time>2018-05-06T11:43:43Z</time>
      </trkpt>
      <trkpt lat="42.89275" lon="0.16367">
        <ele>2216.86</ele>
        <time>2018-05-06T11:43:48Z</time>
      </trkpt>
      <trkpt lat="42.89295" lon="0.16364">
        <ele>2215.52</ele>
        <time>2018-05-06T11:43:55Z</time>
      </trkpt>
      <trkpt lat="42.89311" lon="0.16348">
        <ele>2211.94</ele>
        <time>2018-05-06T11:44:01Z</time>
      </trkpt>
      <trkpt lat="42.89322" lon="0.16329">
        <ele>2206.98</ele>
        <time>2018-05-06T11:44:05Z</time>
      </trkpt>
      <trkpt lat="42.89324" lon="0.16299">
        <ele>2202.95</ele>
        <time>2018-05-06T11:44:09Z</time>
      </trkpt>
      <trkpt lat="42.89327" lon="0.1627">
        <ele>2196.64</ele>
        <time>2018-05-06T11:44:13Z</time>
      </trkpt>
      <trkpt lat="42.89344" lon="0.16261">
        <ele>2187.85</ele>
        <time>2018-05-06T11:45:18Z</time>
      </trkpt>
      <trkpt lat="42.89363" lon="0.16252">
        <ele>2185.91</ele>
        <time>2018-05-06T11:45:22Z</time>
      </trkpt>
      <trkpt lat="42.89383" lon="0.16243">
        <ele>2181.04</ele>
        <time>2018-05-06T11:45:26Z</time>
      </trkpt>
      <trkpt lat="42.894" lon="0.1623">
        <ele>2176.25</ele>
        <time>2018-05-06T11:45:30Z</time>
      </trkpt>
      <trkpt lat="42.89416" lon="0.16221">
        <ele>2172.05</ele>
        <time>2018-05-06T11:45:33Z</time>
      </trkpt>
      <trkpt lat="42.89435" lon="0.1621">
        <ele>2167.25</ele>
        <time>2018-05-06T11:45:37Z</time>
      </trkpt>
      <trkpt lat="42.89453" lon="0.16194">
        <ele>2162.95</ele>
        <time>2018-05-06T11:45:41Z</time>
      </trkpt>
      <trkpt lat="42.89473" lon="0.16184">
        <ele>2159.89</ele>
        <time>2018-05-06T11:45:44Z</time>
      </trkpt>
      <trkpt lat="42.89494" lon="0.1617">
        <ele>2156.95</ele>
        <time>2018-05-06T11:45:47Z</time>
      </trkpt>
      <trkpt lat="42.89511" lon="0.16157">
        <ele>2154.25</ele>
        <time>2018-05-06T11:45:49Z</time>
      </trkpt>
      <trkpt lat="42.89531" lon="0.16139">
        <ele>2151.28</ele>
        <time>2018-05-06T11:45:51Z</time>
      </trkpt>
      <trkpt lat="42.8955" lon="0.16117">
        <ele>2148.28</ele>
        <time>2018-05-06T11:45:53Z</time>
      </trkpt>
      <trkpt lat="42.8957" lon="0.16102">
        <ele>2145.07</ele>
        <time>2018-05-06T11:45:55Z</time>
      </trkpt>
      <trkpt lat="42.89586" lon="0.16086">
        <ele>2142.05</ele>
        <time>2018-05-06T11:45:57Z</time>
      </trkpt>
      <trkpt lat="42.896" lon="0.16068">
        <ele>2138.25</ele>
        <time>2018-05-06T11:46:00Z</time>
      </trkpt>
      <trkpt lat="42.89611" lon="0.16048">
        <ele>2131.61</ele>
        <time>2018-05-06T11:46:10Z</time>
      </trkpt>
      <trkpt lat="42.89628" lon="0.16037">
        <ele>2127.55</ele>
        <time>2018-05-06T11:46:22Z</time>
      </trkpt>
      <trkpt lat="42.89646" lon="0.16031">
        <ele>2125.61</ele>
        <time>2018-05-06T11:46:31Z</time>
      </trkpt>
      <trkpt lat="42.89664" lon="0.16025">
        <ele>2123.61</ele>
        <time>2018-05-06T11:46:43Z</time>
      </trkpt>
      <trkpt lat="42.89682" lon="0.16016">
        <ele>2121.52</ele>
        <time>2018-05-06T11:46:53Z</time>
      </trkpt>
      <trkpt lat="42.89696" lon="0.16">
        <ele>2115.86</ele>
        <time>2018-05-06T11:48:32Z</time>
      </trkpt>
      <trkpt lat="42.89717" lon="0.15989">
        <ele>2112.94</ele>
        <time>2018-05-06T11:48:36Z</time>
      </trkpt>
      <trkpt lat="42.89733" lon="0.15971">
        <ele>2110.15</ele>
        <time>2018-05-06T11:48:40Z</time>
      </trkpt>
      <trkpt lat="42.89751" lon="0.15956">
        <ele>2106.57</ele>
        <time>2018-05-06T11:48:44Z</time>
      </trkpt>
      <trkpt lat="42.89768" lon="0.15942">
        <ele>2102.25</ele>
        <time>2018-05-06T11:48:48Z</time>
      </trkpt>
      <trkpt lat="42.89784" lon="0.15923">
        <ele>2097.15</ele>
        <time>2018-05-06T11:48:54Z</time>
      </trkpt>
      <trkpt lat="42.89804" lon="0.15922">
        <ele>2093.15</ele>
        <time>2018-05-06T11:48:59Z</time>
      </trkpt>
      <trkpt lat="42.89809" lon="0.15893">
        <ele>2085.53</ele>
        <time>2018-05-06T11:49:05Z</time>
      </trkpt>
      <trkpt lat="42.89825" lon="0.15873">
        <ele>2077.38</ele>
        <time>2018-05-06T11:49:09Z</time>
      </trkpt>
      <trkpt lat="42.89841" lon="0.15862">
        <ele>2075.53</ele>
        <time>2018-05-06T11:49:14Z</time>
      </trkpt>
      <trkpt lat="42.89857" lon="0.15849">
        <ele>2073.62</ele>
        <time>2018-05-06T11:49:21Z</time>
      </trkpt>
      <trkpt lat="42.8987" lon="0.15827">
        <ele>2067.95</ele>
        <time>2018-05-06T11:49:29Z</time>
      </trkpt>
      <trkpt lat="42.89882" lon="0.15806">
        <ele>2063.92</ele>
        <time>2018-05-06T11:49:36Z</time>
      </trkpt>
      <trkpt lat="42.899" lon="0.1579">
        <ele>2058.15</ele>
        <time>2018-05-06T11:49:46Z</time>
      </trkpt>
      <trkpt lat="42.89917" lon="0.15778">
        <ele>2052.9</ele>
        <time>2018-05-06T11:49:50Z</time>
      </trkpt>
      <trkpt lat="42.89937" lon="0.15782">
        <ele>2050.83</ele>
        <time>2018-05-06T11:49:56Z</time>
      </trkpt>
      <trkpt lat="42.89955" lon="0.15787">
        <ele>2046.92</ele>
        <time>2018-05-06T11:50:02Z</time>
      </trkpt>
      <trkpt lat="42.89975" lon="0.15796">
        <ele>2041.89</ele>
        <time>2018-05-06T11:50:07Z</time>
      </trkpt>
      <trkpt lat="42.89991" lon="0.15811">
        <ele>2037.92</ele>
        <time>2018-05-06T11:50:13Z</time>
      </trkpt>
      <trkpt lat="42.9001" lon="0.15814">
        <ele>2034.62</ele>
        <time>2018-05-06T11:50:22Z</time>
      </trkpt>
      <trkpt lat="42.90022" lon="0.15833">
        <ele>2027.52</ele>
        <time>2018-05-06T11:51:06Z</time>
      </trkpt>
      <trkpt lat="42.90043" lon="0.1583">
        <ele>2021.98</ele>
        <time>2018-05-06T11:51:13Z</time>
      </trkpt>
      <trkpt lat="42.90061" lon="0.1584">
        <ele>2017.56</ele>
        <time>2018-05-06T11:51:19Z</time>
      </trkpt>
      <trkpt lat="42.90071" lon="0.15865">
        <ele>2012.86</ele>
        <time>2018-05-06T11:51:25Z</time>
      </trkpt>
      <trkpt lat="42.90084" lon="0.15891">
        <ele>2005.28</ele>
        <time>2018-05-06T11:51:31Z</time>
      </trkpt>
      <trkpt lat="42.90082" lon="0.15916">
        <ele>2001.32</ele>
        <time>2018-05-06T11:51:34Z</time>
      </trkpt>
      <trkpt lat="42.90094" lon="0.15946">
        <ele>1992.16</ele>
        <time>2018-05-06T11:51:37Z</time>
      </trkpt>
      <trkpt lat="42.90105" lon="0.1597">
        <ele>1985.63</ele>
        <time>2018-05-06T11:51:39Z</time>
      </trkpt>
      <trkpt lat="42.90119" lon="0.16">
        <ele>1980.09</ele>
        <time>2018-05-06T11:51:42Z</time>
      </trkpt>
      <trkpt lat="42.90129" lon="0.16029">
        <ele>1975.07</ele>
        <time>2018-05-06T11:51:45Z</time>
      </trkpt>
      <trkpt lat="42.90134" lon="0.16053">
        <ele>1973.53</ele>
        <time>2018-05-06T11:51:49Z</time>
      </trkpt>
      <trkpt lat="42.90144" lon="0.16075">
        <ele>1969.93</ele>
        <time>2018-05-06T11:52:28Z</time>
      </trkpt>
      <trkpt lat="42.90167" lon="0.16087">
        <ele>1964.22</ele>
        <time>2018-05-06T11:52:34Z</time>
      </trkpt>
      <trkpt lat="42.90187" lon="0.16104">
        <ele>1957.76</ele>
        <time>2018-05-06T11:52:39Z</time>
      </trkpt>
      <trkpt lat="42.90193" lon="0.16132">
        <ele>1951.98</ele>
        <time>2018-05-06T11:52:43Z</time>
      </trkpt>
      <trkpt lat="42.90205" lon="0.1615">
        <ele>1945.35</ele>
        <time>2018-05-06T11:52:47Z</time>
      </trkpt>
      <trkpt lat="42.90216" lon="0.16172">
        <ele>1938.37</ele>
        <time>2018-05-06T11:52:51Z</time>
      </trkpt>
      <trkpt lat="42.90225" lon="0.16195">
        <ele>1931.08</ele>
        <time>2018-05-06T11:52:55Z</time>
      </trkpt>
      <trkpt lat="42.90234" lon="0.16221">
        <ele>1925.93</ele>
        <time>2018-05-06T11:53:00Z</time>
      </trkpt>
      <trkpt lat="42.90248" lon="0.16245">
        <ele>1919.34</ele>
        <time>2018-05-06T11:53:05Z</time>
      </trkpt>
      <trkpt lat="42.90266" lon="0.16236">
        <ele>1912.73</ele>
        <time>2018-05-06T11:53:11Z</time>
      </trkpt>
      <trkpt lat="42.90281" lon="0.1622">
        <ele>1906.56</ele>
        <time>2018-05-06T11:53:19Z</time>
      </trkpt>
      <trkpt lat="42.90303" lon="0.16223">
        <ele>1897.93</ele>
        <time>2018-05-06T11:53:25Z</time>
      </trkpt>
      <trkpt lat="42.90318" lon="0.16239">
        <ele>1889.94</ele>
        <time>2018-05-06T11:53:31Z</time>
      </trkpt>
      <trkpt lat="42.90333" lon="0.16264">
        <ele>1884.98</ele>
        <time>2018-05-06T11:53:35Z</time>
      </trkpt>
      <trkpt lat="42.90353" lon="0.16281">
        <ele>1879.43</ele>
        <time>2018-05-06T11:53:38Z</time>
      </trkpt>
      <trkpt lat="42.9037" lon="0.16294">
        <ele>1875.17</ele>
        <time>2018-05-06T11:53:40Z</time>
      </trkpt>
      <trkpt lat="42.90388" lon="0.16305">
        <ele>1872.76</ele>
        <time>2018-05-06T11:53:42Z</time>
      </trkpt>
      <trkpt lat="42.90405" lon="0.16319">
        <ele>1870.02</ele>
        <time>2018-05-06T11:53:44Z</time>
      </trkpt>
      <trkpt lat="42.90422" lon="0.16334">
        <ele>1867.05</ele>
        <time>2018-05-06T11:53:46Z</time>
      </trkpt>
      <trkpt lat="42.9044" lon="0.16343">
        <ele>1864.96</ele>
        <time>2018-05-06T11:53:48Z</time>
      </trkpt>
      <trkpt lat="42.90457" lon="0.16351">
        <ele>1862.95</ele>
        <time>2018-05-06T11:53:50Z</time>
      </trkpt>
      <trkpt lat="42.90479" lon="0.16362">
        <ele>1858.28</ele>
        <time>2018-05-06T11:53:53Z</time>
      </trkpt>
      <trkpt lat="42.90499" lon="0.16374">
        <ele>1854.05</ele>
        <time>2018-05-06T11:53:56Z</time>
      </trkpt>
      <trkpt lat="42.9051" lon="0.16396">
        <ele>1849.28</ele>
        <time>2018-05-06T11:53:59Z</time>
      </trkpt>
      <trkpt lat="42.90516" lon="0.16421">
        <ele>1845.26</ele>
        <time>2018-05-06T11:54:02Z</time>
      </trkpt>
      <trkpt lat="42.90527" lon="0.16444">
        <ele>1841.86</ele>
        <time>2018-05-06T11:54:06Z</time>
      </trkpt>
      <trkpt lat="42.90545" lon="0.16457">
        <ele>1838.65</ele>
        <time>2018-05-06T11:54:10Z</time>
      </trkpt>
      <trkpt lat="42.90564" lon="0.16458">
        <ele>1836.92</ele>
        <time>2018-05-06T11:54:13Z</time>
      </trkpt>
      <trkpt lat="42.90583" lon="0.16461">
        <ele>1834.22</ele>
        <time>2018-05-06T11:54:16Z</time>
      </trkpt>
      <trkpt lat="42.90603" lon="0.16469">
        <ele>1827.16</ele>
        <time>2018-05-06T11:54:20Z</time>
      </trkpt>
      <trkpt lat="42.90622" lon="0.16479">
        <ele>1816.39</ele>
        <time>2018-05-06T11:54:25Z</time>
      </trkpt>
      <trkpt lat="42.90646" lon="0.16479">
        <ele>1812.26</ele>
        <time>2018-05-06T11:54:28Z</time>
      </trkpt>
      <trkpt lat="42.90665" lon="0.16491">
        <ele>1809.28</ele>
        <time>2018-05-06T11:54:30Z</time>
      </trkpt>
      <trkpt lat="42.90685" lon="0.165">
        <ele>1805.37</ele>
        <time>2018-05-06T11:54:32Z</time>
      </trkpt>
      <trkpt lat="42.90709" lon="0.165">
        <ele>1801.05</ele>
        <time>2018-05-06T11:54:35Z</time>
      </trkpt>
      <trkpt lat="42.90725" lon="0.16516">
        <ele>1792.82</ele>
        <time>2018-05-06T11:55:48Z</time>
      </trkpt>
      <trkpt lat="42.90742" lon="0.16528">
        <ele>1793.31</ele>
        <time>2018-05-06T11:56:06Z</time>
      </trkpt>
      <trkpt lat="42.90757" lon="0.16542">
        <ele>1791.82</ele>
        <time>2018-05-06T11:56:21Z</time>
      </trkpt>
      <trkpt lat="42.90765" lon="0.16566">
        <ele>1794.43</ele>
        <time>2018-05-06T11:56:35Z</time>
      </trkpt>
      <trkpt lat="42.90776" lon="0.16586">
        <ele>1796.43</ele>
        <time>2018-05-06T11:56:47Z</time>
      </trkpt>
      <trkpt lat="42.90787" lon="0.16606">
        <ele>1796.52</ele>
        <time>2018-05-06T11:56:59Z</time>
      </trkpt>
    </trkseg>
  </trk>
</gpx>